KR-0420 weather

Dong-il Building Heliport
Busan, Busan Gwang'yeogsi, South Korea

Public forecast

Using degrees Celsius for public forecast. Weather courtesy of forecast.io.

METAR (pilot weather report)

Closest report is Gimhae International Airport, 6.6 nm (12.3 km) WNW. Retrieved 2019/09/15 06:00 UTC (29 minutes ago):

RKPK 150600Z 09009KT 9999 FEW030 SCT060 29/20 Q1008

TAF (pilot weather forecast)

Closest forecast is Gimhae International Airport, 6.6 nm (12.3 km) WNW. Retrieved 2019/09/15 06:00 UTC (29 minutes ago):

TAF RKPK 150500Z 1506/1612 03010KT 9999 BKN050 TN21/1521Z TX28/1606Z BECMG 1508/1509 03006KT SCT050